Terminal Aerodrome Forecast
Issued by NWS Sterling, VA

Current Version | Previous Version | Graphics & Text | Print | Product List | Glossary On
Versions: 1 2 3 4 5 6 7 8 9 10 11 12 13 14 15 16 17 18 19 20 21 22 23
000
FTUS41 KLWX 112330
TAFIAD
TAF
KIAD 112330Z 1200/1306 15005KT P6SM SCT120
     FM120600 17007KT P6SM BKN080
     FM121400 22008KT P6SM BKN110
     FM121600 26010KT P6SM BKN130
     FM121800 28015G23KT P6SM BKN040
     FM122000 29017G27KT P6SM SCT040
     FM130500 29011G20KT P6SM SCT060=

USA.gov is the U.S. government's official web portal to all federal, state and local government web resources and services.